sensor_id;sensor_type;location;lat;lon;timestamp;P1;durP1;ratioP1;P2;durP2;ratioP2
21152;SDS011;10734;44.792;20.482;2023-06-10T00:02:20;10.27;;;8.50;;
21152;SDS011;10734;44.792;20.482;2023-06-10T00:04:48;10.25;;;7.78;;
21152;SDS011;10734;44.792;20.482;2023-06-10T00:07:14;11.45;;;9.00;;
21152;SDS011;10734;44.792;20.482;2023-06-10T00:09:41;8.88;;;7.85;;
21152;SDS011;10734;44.792;20.482;2023-06-10T00:12:08;9.00;;;8.00;;
21152;SDS011;10734;44.792;20.482;2023-06-10T00:14:40;14.50;;;9.15;;
21152;SDS011;10734;44.792;20.482;2023-06-10T00:17:09;13.82;;;9.43;;
21152;SDS011;10734;44.792;20.482;2023-06-10T00:19:37;12.10;;;9.15;;
21152;SDS011;10734;44.792;20.482;2023-06-10T00:22:08;16.48;;;9.38;;
21152;SDS011;10734;44.792;20.482;2023-06-10T00:24:37;10.27;;;9.05;;
21152;SDS011;10734;44.792;20.482;2023-06-10T00:27:04;12.73;;;10.00;;
21152;SDS011;10734;44.792;20.482;2023-06-10T00:29:33;12.10;;;8.30;;
21152;SDS011;10734;44.792;20.482;2023-06-10T00:32:00;11.38;;;9.65;;
21152;SDS011;10734;44.792;20.482;2023-06-10T00:34:27;10.05;;;9.05;;
21152;SDS011;10734;44.792;20.482;2023-06-10T00:36:53;8.93;;;7.95;;
21152;SDS011;10734;44.792;20.482;2023-06-10T00:39:20;8.93;;;8.02;;
21152;SDS011;10734;44.792;20.482;2023-06-10T00:41:47;12.23;;;9.32;;
21152;SDS011;10734;44.792;20.482;2023-06-10T00:44:14;12.00;;;9.10;;
21152;SDS011;10734;44.792;20.482;2023-06-10T00:46:41;11.70;;;9.85;;
21152;SDS011;10734;44.792;20.482;2023-06-10T00:49:09;10.00;;;8.90;;
21152;SDS011;10734;44.792;20.482;2023-06-10T00:51:36;15.27;;;10.15;;
21152;SDS011;10734;44.792;20.482;2023-06-10T00:54:03;12.57;;;9.55;;
21152;SDS011;10734;44.792;20.482;2023-06-10T00:56:31;12.13;;;10.77;;
21152;SDS011;10734;44.792;20.482;2023-06-10T00:58:58;11.73;;;9.85;;
21152;SDS011;10734;44.792;20.482;2023-06-10T01:01:25;11.13;;;9.82;;
21152;SDS011;10734;44.792;20.482;2023-06-10T01:03:53;12.25;;;9.27;;
21152;SDS011;10734;44.792;20.482;2023-06-10T01:08:56;11.02;;;9.43;;
21152;SDS011;10734;44.792;20.482;2023-06-10T01:11:50;10.23;;;8.88;;
21152;SDS011;10734;44.792;20.482;2023-06-10T01:14:24;11.10;;;9.90;;
21152;SDS011;10734;44.792;20.482;2023-06-10T01:16:52;11.05;;;8.88;;
21152;SDS011;10734;44.792;20.482;2023-06-10T01:19:19;15.57;;;10.45;;
21152;SDS011;10734;44.792;20.482;2023-06-10T01:21:46;12.38;;;10.05;;
21152;SDS011;10734;44.792;20.482;2023-06-10T01:24:15;11.38;;;9.45;;
21152;SDS011;10734;44.792;20.482;2023-06-10T01:26:44;13.85;;;10.68;;
21152;SDS011;10734;44.792;20.482;2023-06-10T01:29:18;17.73;;;9.57;;
21152;SDS011;10734;44.792;20.482;2023-06-10T01:32:01;10.88;;;9.75;;
21152;SDS011;10734;44.792;20.482;2023-06-10T01:34:32;12.52;;;9.27;;
21152;SDS011;10734;44.792;20.482;2023-06-10T01:37:01;12.68;;;10.80;;
21152;SDS011;10734;44.792;20.482;2023-06-10T01:39:30;17.73;;;13.25;;
21152;SDS011;10734;44.792;20.482;2023-06-10T01:41:58;13.57;;;11.65;;
21152;SDS011;10734;44.792;20.482;2023-06-10T01:44:27;16.15;;;11.93;;
21152;SDS011;10734;44.792;20.482;2023-06-10T01:46:54;19.05;;;10.80;;
21152;SDS011;10734;44.792;20.482;2023-06-10T01:49:20;18.40;;;11.98;;
21152;SDS011;10734;44.792;20.482;2023-06-10T01:51:50;12.80;;;10.25;;
21152;SDS011;10734;44.792;20.482;2023-06-10T01:54:17;13.82;;;11.30;;
21152;SDS011;10734;44.792;20.482;2023-06-10T01:56:43;15.85;;;10.80;;
21152;SDS011;10734;44.792;20.482;2023-06-10T01:59:10;13.75;;;10.23;;
21152;SDS011;10734;44.792;20.482;2023-06-10T02:01:37;13.25;;;10.65;;
21152;SDS011;10734;44.792;20.482;2023-06-10T02:04:04;19.50;;;13.10;;
21152;SDS011;10734;44.792;20.482;2023-06-10T02:06:31;14.70;;;10.43;;
21152;SDS011;10734;44.792;20.482;2023-06-10T02:08:57;17.13;;;13.23;;
21152;SDS011;10734;44.792;20.482;2023-06-10T02:11:24;16.95;;;11.55;;
21152;SDS011;10734;44.792;20.482;2023-06-10T02:13:53;13.52;;;11.70;;
21152;SDS011;10734;44.792;20.482;2023-06-10T02:16:19;15.13;;;12.30;;
21152;SDS011;10734;44.792;20.482;2023-06-10T02:18:47;17.73;;;12.55;;
21152;SDS011;10734;44.792;20.482;2023-06-10T02:21:15;16.10;;;12.52;;
21152;SDS011;10734;44.792;20.482;2023-06-10T02:23:41;17.88;;;12.82;;
21152;SDS011;10734;44.792;20.482;2023-06-10T02:26:08;17.80;;;12.73;;
21152;SDS011;10734;44.792;20.482;2023-06-10T02:28:35;15.95;;;11.93;;
21152;SDS011;10734;44.792;20.482;2023-06-10T02:31:01;15.43;;;12.77;;
21152;SDS011;10734;44.792;20.482;2023-06-10T02:33:28;15.65;;;12.05;;
21152;SDS011;10734;44.792;20.482;2023-06-10T02:35:55;16.75;;;11.82;;
21152;SDS011;10734;44.792;20.482;2023-06-10T02:38:21;19.05;;;13.30;;
21152;SDS011;10734;44.792;20.482;2023-06-10T02:40:48;15.93;;;11.45;;
21152;SDS011;10734;44.792;20.482;2023-06-10T02:43:14;14.90;;;12.80;;
21152;SDS011;10734;44.792;20.482;2023-06-10T02:45:41;15.48;;;13.68;;
21152;SDS011;10734;44.792;20.482;2023-06-10T02:48:07;15.48;;;12.98;;
21152;SDS011;10734;44.792;20.482;2023-06-10T02:50:34;17.42;;;14.40;;
21152;SDS011;10734;44.792;20.482;2023-06-10T02:53:01;17.58;;;14.85;;
21152;SDS011;10734;44.792;20.482;2023-06-10T02:55:27;16.92;;;14.90;;
21152;SDS011;10734;44.792;20.482;2023-06-10T02:57:54;18.35;;;14.60;;
21152;SDS011;10734;44.792;20.482;2023-06-10T03:00:20;20.85;;;17.85;;
21152;SDS011;10734;44.792;20.482;2023-06-10T03:02:47;21.48;;;15.85;;
21152;SDS011;10734;44.792;20.482;2023-06-10T03:05:15;20.00;;;15.98;;
21152;SDS011;10734;44.792;20.482;2023-06-10T03:07:43;29.85;;;16.27;;
21152;SDS011;10734;44.792;20.482;2023-06-10T03:10:09;18.52;;;14.98;;
21152;SDS011;10734;44.792;20.482;2023-06-10T03:12:36;19.27;;;15.13;;
21152;SDS011;10734;44.792;20.482;2023-06-10T03:15:03;21.75;;;16.17;;
21152;SDS011;10734;44.792;20.482;2023-06-10T03:17:30;25.08;;;16.20;;
21152;SDS011;10734;44.792;20.482;2023-06-10T03:19:57;22.50;;;15.85;;
21152;SDS011;10734;44.792;20.482;2023-06-10T03:22:23;21.05;;;16.98;;
21152;SDS011;10734;44.792;20.482;2023-06-10T03:24:50;22.83;;;16.95;;
21152;SDS011;10734;44.792;20.482;2023-06-10T03:27:17;19.33;;;15.25;;
21152;SDS011;10734;44.792;20.482;2023-06-10T03:29:44;18.20;;;14.85;;
21152;SDS011;10734;44.792;20.482;2023-06-10T03:32:10;16.15;;;14.10;;
21152;SDS011;10734;44.792;20.482;2023-06-10T03:34:37;16.00;;;14.30;;
21152;SDS011;10734;44.792;20.482;2023-06-10T03:37:04;21.65;;;14.95;;
21152;SDS011;10734;44.792;20.482;2023-06-10T03:39:32;22.63;;;15.02;;
21152;SDS011;10734;44.792;20.482;2023-06-10T03:41:58;17.13;;;14.40;;
21152;SDS011;10734;44.792;20.482;2023-06-10T03:44:25;17.40;;;15.48;;
21152;SDS011;10734;44.792;20.482;2023-06-10T03:46:52;17.23;;;14.13;;
21152;SDS011;10734;44.792;20.482;2023-06-10T03:49:19;18.60;;;16.35;;
21152;SDS011;10734;44.792;20.482;2023-06-10T03:51:46;18.40;;;16.05;;
21152;SDS011;10734;44.792;20.482;2023-06-10T03:54:13;23.92;;;16.45;;
21152;SDS011;10734;44.792;20.482;2023-06-10T03:56:39;23.40;;;19.02;;
21152;SDS011;10734;44.792;20.482;2023-06-10T03:59:06;25.13;;;20.30;;
21152;SDS011;10734;44.792;20.482;2023-06-10T04:01:33;26.98;;;18.90;;
21152;SDS011;10734;44.792;20.482;2023-06-10T04:04:01;22.50;;;17.48;;
21152;SDS011;10734;44.792;20.482;2023-06-10T04:06:28;24.05;;;19.60;;
21152;SDS011;10734;44.792;20.482;2023-06-10T04:08:55;22.98;;;18.92;;
21152;SDS011;10734;44.792;20.482;2023-06-10T04:11:23;20.38;;;17.83;;
21152;SDS011;10734;44.792;20.482;2023-06-10T04:13:51;23.15;;;17.67;;
21152;SDS011;10734;44.792;20.482;2023-06-10T04:16:17;19.02;;;16.27;;
21152;SDS011;10734;44.792;20.482;2023-06-10T04:18:44;19.42;;;15.65;;
21152;SDS011;10734;44.792;20.482;2023-06-10T04:21:11;20.30;;;15.93;;
21152;SDS011;10734;44.792;20.482;2023-06-10T04:23:37;15.88;;;13.95;;
21152;SDS011;10734;44.792;20.482;2023-06-10T04:26:04;21.67;;;15.75;;
21152;SDS011;10734;44.792;20.482;2023-06-10T04:28:32;20.50;;;14.68;;
21152;SDS011;10734;44.792;20.482;2023-06-10T04:30:58;16.45;;;13.63;;
21152;SDS011;10734;44.792;20.482;2023-06-10T04:33:25;14.35;;;12.35;;
21152;SDS011;10734;44.792;20.482;2023-06-10T04:35:52;16.65;;;13.20;;
21152;SDS011;10734;44.792;20.482;2023-06-10T04:38:19;16.45;;;13.30;;
21152;SDS011;10734;44.792;20.482;2023-06-10T04:40:46;16.17;;;11.45;;
21152;SDS011;10734;44.792;20.482;2023-06-10T04:43:13;16.08;;;11.13;;
21152;SDS011;10734;44.792;20.482;2023-06-10T04:45:41;13.55;;;10.85;;
21152;SDS011;10734;44.792;20.482;2023-06-10T04:48:11;14.48;;;9.25;;
21152;SDS011;10734;44.792;20.482;2023-06-10T04:50:38;15.07;;;8.88;;
21152;SDS011;10734;44.792;20.482;2023-06-10T04:53:05;10.88;;;8.80;;
21152;SDS011;10734;44.792;20.482;2023-06-10T04:55:32;12.52;;;8.85;;
21152;SDS011;10734;44.792;20.482;2023-06-10T04:58:00;11.60;;;8.85;;
21152;SDS011;10734;44.792;20.482;2023-06-10T05:00:27;15.27;;;9.93;;
21152;SDS011;10734;44.792;20.482;2023-06-10T05:02:54;16.95;;;9.00;;
21152;SDS011;10734;44.792;20.482;2023-06-10T05:05:22;13.82;;;8.90;;
21152;SDS011;10734;44.792;20.482;2023-06-10T05:07:49;15.02;;;8.82;;
21152;SDS011;10734;44.792;20.482;2023-06-10T05:10:16;10.68;;;8.68;;
21152;SDS011;10734;44.792;20.482;2023-06-10T05:12:43;9.80;;;7.53;;
21152;SDS011;10734;44.792;20.482;2023-06-10T05:15:10;12.82;;;7.97;;
21152;SDS011;10734;44.792;20.482;2023-06-10T05:17:37;11.35;;;7.22;;
21152;SDS011;10734;44.792;20.482;2023-06-10T05:20:04;11.63;;;7.10;;
21152;SDS011;10734;44.792;20.482;2023-06-10T05:22:31;11.23;;;8.45;;
21152;SDS011;10734;44.792;20.482;2023-06-10T05:24:58;15.00;;;8.40;;
21152;SDS011;10734;44.792;20.482;2023-06-10T05:27:24;13.60;;;8.10;;
21152;SDS011;10734;44.792;20.482;2023-06-10T05:29:51;15.55;;;8.15;;
21152;SDS011;10734;44.792;20.482;2023-06-10T05:32:18;13.43;;;8.68;;
21152;SDS011;10734;44.792;20.482;2023-06-10T05:34:45;10.40;;;6.30;;
21152;SDS011;10734;44.792;20.482;2023-06-10T05:37:12;7.35;;;6.07;;
21152;SDS011;10734;44.792;20.482;2023-06-10T05:39:39;7.43;;;5.95;;
21152;SDS011;10734;44.792;20.482;2023-06-10T05:42:06;9.32;;;5.53;;
21152;SDS011;10734;44.792;20.482;2023-06-10T05:44:34;7.70;;;6.25;;
21152;SDS011;10734;44.792;20.482;2023-06-10T05:47:01;6.53;;;5.03;;
21152;SDS011;10734;44.792;20.482;2023-06-10T05:49:28;9.23;;;6.47;;
21152;SDS011;10734;44.792;20.482;2023-06-10T05:51:54;10.48;;;7.72;;
21152;SDS011;10734;44.792;20.482;2023-06-10T05:54:23;13.20;;;7.13;;
21152;SDS011;10734;44.792;20.482;2023-06-10T05:56:52;9.82;;;5.72;;
21152;SDS011;10734;44.792;20.482;2023-06-10T05:59:19;14.07;;;7.13;;
21152;SDS011;10734;44.792;20.482;2023-06-10T06:01:45;6.05;;;5.10;;
21152;SDS011;10734;44.792;20.482;2023-06-10T06:04:12;8.60;;;5.53;;
21152;SDS011;10734;44.792;20.482;2023-06-10T06:06:39;7.72;;;5.68;;
21152;SDS011;10734;44.792;20.482;2023-06-10T06:09:07;7.20;;;5.68;;
21152;SDS011;10734;44.792;20.482;2023-06-10T06:11:34;6.72;;;5.03;;
21152;SDS011;10734;44.792;20.482;2023-06-10T06:14:02;6.85;;;4.97;;
21152;SDS011;10734;44.792;20.482;2023-06-10T06:16:28;4.90;;;4.43;;
21152;SDS011;10734;44.792;20.482;2023-06-10T06:18:56;5.82;;;4.00;;
21152;SDS011;10734;44.792;20.482;2023-06-10T06:21:23;9.50;;;4.22;;
21152;SDS011;10734;44.792;20.482;2023-06-10T06:23:50;5.40;;;3.45;;
21152;SDS011;10734;44.792;20.482;2023-06-10T06:26:17;5.55;;;3.65;;
21152;SDS011;10734;44.792;20.482;2023-06-10T06:28:44;5.70;;;4.35;;
21152;SDS011;10734;44.792;20.482;2023-06-10T06:31:11;5.45;;;4.07;;
21152;SDS011;10734;44.792;20.482;2023-06-10T06:33:39;6.05;;;3.50;;
21152;SDS011;10734;44.792;20.482;2023-06-10T06:36:06;4.43;;;3.97;;
21152;SDS011;10734;44.792;20.482;2023-06-10T06:38:33;7.57;;;4.05;;
21152;SDS011;10734;44.792;20.482;2023-06-10T06:41:00;5.68;;;4.05;;
21152;SDS011;10734;44.792;20.482;2023-06-10T06:43:30;6.70;;;3.95;;
21152;SDS011;10734;44.792;20.482;2023-06-10T06:45:57;6.22;;;3.72;;
21152;SDS011;10734;44.792;20.482;2023-06-10T06:48:24;7.68;;;4.05;;
21152;SDS011;10734;44.792;20.482;2023-06-10T06:50:51;9.90;;;4.60;;
21152;SDS011;10734;44.792;20.482;2023-06-10T06:53:18;4.78;;;4.00;;
21152;SDS011;10734;44.792;20.482;2023-06-10T06:55:45;6.47;;;3.50;;
21152;SDS011;10734;44.792;20.482;2023-06-10T06:58:12;5.57;;;4.10;;
21152;SDS011;10734;44.792;20.482;2023-06-10T07:00:38;7.78;;;3.95;;
21152;SDS011;10734;44.792;20.482;2023-06-10T07:03:06;6.07;;;4.07;;
21152;SDS011;10734;44.792;20.482;2023-06-10T07:05:33;6.03;;;3.90;;
21152;SDS011;10734;44.792;20.482;2023-06-10T07:07:59;13.07;;;3.85;;
21152;SDS011;10734;44.792;20.482;2023-06-10T07:10:26;6.07;;;3.40;;
21152;SDS011;10734;44.792;20.482;2023-06-10T07:12:54;5.80;;;3.65;;
21152;SDS011;10734;44.792;20.482;2023-06-10T07:15:21;3.72;;;3.28;;
21152;SDS011;10734;44.792;20.482;2023-06-10T07:17:48;5.40;;;3.15;;
21152;SDS011;10734;44.792;20.482;2023-06-10T07:20:16;8.38;;;2.88;;
21152;SDS011;10734;44.792;20.482;2023-06-10T07:22:44;3.58;;;3.20;;
21152;SDS011;10734;44.792;20.482;2023-06-10T07:25:11;4.90;;;3.42;;
21152;SDS011;10734;44.792;20.482;2023-06-10T07:27:38;4.85;;;2.92;;
21152;SDS011;10734;44.792;20.482;2023-06-10T07:30:05;5.03;;;2.63;;
21152;SDS011;10734;44.792;20.482;2023-06-10T07:32:34;2.45;;;2.25;;
21152;SDS011;10734;44.792;20.482;2023-06-10T07:35:02;6.22;;;4.55;;
21152;SDS011;10734;44.792;20.482;2023-06-10T07:37:29;10.45;;;5.10;;
21152;SDS011;10734;44.792;20.482;2023-06-10T07:39:56;7.57;;;5.10;;
21152;SDS011;10734;44.792;20.482;2023-06-10T07:42:23;7.32;;;4.30;;
21152;SDS011;10734;44.792;20.482;2023-06-10T07:44:50;7.78;;;4.82;;
21152;SDS011;10734;44.792;20.482;2023-06-10T07:47:17;5.93;;;4.82;;
21152;SDS011;10734;44.792;20.482;2023-06-10T07:49:45;10.93;;;5.30;;
21152;SDS011;10734;44.792;20.482;2023-06-10T07:52:12;13.40;;;5.40;;
21152;SDS011;10734;44.792;20.482;2023-06-10T07:54:40;7.70;;;4.50;;
21152;SDS011;10734;44.792;20.482;2023-06-10T07:57:07;7.43;;;4.13;;
21152;SDS011;10734;44.792;20.482;2023-06-10T07:59:34;4.97;;;3.55;;
21152;SDS011;10734;44.792;20.482;2023-06-10T08:02:01;10.73;;;3.97;;
21152;SDS011;10734;44.792;20.482;2023-06-10T08:04:29;8.55;;;3.72;;
21152;SDS011;10734;44.792;20.482;2023-06-10T08:06:57;9.05;;;3.97;;
21152;SDS011;10734;44.792;20.482;2023-06-10T08:09:24;8.90;;;4.57;;
21152;SDS011;10734;44.792;20.482;2023-06-10T08:11:51;5.43;;;3.55;;
21152;SDS011;10734;44.792;20.482;2023-06-10T08:14:18;16.10;;;3.75;;
21152;SDS011;10734;44.792;20.482;2023-06-10T08:16:45;6.72;;;3.47;;
21152;SDS011;10734;44.792;20.482;2023-06-10T08:19:12;5.53;;;3.38;;
21152;SDS011;10734;44.792;20.482;2023-06-10T08:21:40;5.30;;;2.92;;
21152;SDS011;10734;44.792;20.482;2023-06-10T08:24:09;6.82;;;3.70;;
21152;SDS011;10734;44.792;20.482;2023-06-10T08:26:37;9.73;;;3.83;;
21152;SDS011;10734;44.792;20.482;2023-06-10T08:29:05;5.10;;;4.10;;
21152;SDS011;10734;44.792;20.482;2023-06-10T08:31:32;5.15;;;3.38;;
21152;SDS011;10734;44.792;20.482;2023-06-10T08:33:59;5.32;;;3.60;;
21152;SDS011;10734;44.792;20.482;2023-06-10T08:36:26;4.93;;;3.50;;
21152;SDS011;10734;44.792;20.482;2023-06-10T08:38:53;6.55;;;4.07;;
21152;SDS011;10734;44.792;20.482;2023-06-10T08:41:21;5.18;;;3.78;;
21152;SDS011;10734;44.792;20.482;2023-06-10T08:43:59;5.53;;;3.85;;
21152;SDS011;10734;44.792;20.482;2023-06-10T08:46:38;6.57;;;3.65;;
21152;SDS011;10734;44.792;20.482;2023-06-10T08:49:11;6.75;;;3.55;;
21152;SDS011;10734;44.792;20.482;2023-06-10T08:51:44;7.72;;;3.70;;
21152;SDS011;10734;44.792;20.482;2023-06-10T08:54:15;7.80;;;3.67;;
21152;SDS011;10734;44.792;20.482;2023-06-10T08:56:48;8.88;;;4.32;;
21152;SDS011;10734;44.792;20.482;2023-06-10T08:59:17;9.90;;;4.85;;
21152;SDS011;10734;44.792;20.482;2023-06-10T09:01:45;5.82;;;4.20;;
21152;SDS011;10734;44.792;20.482;2023-06-10T09:04:13;6.35;;;3.78;;
21152;SDS011;10734;44.792;20.482;2023-06-10T09:06:41;4.25;;;3.35;;
21152;SDS011;10734;44.792;20.482;2023-06-10T09:09:08;4.90;;;3.42;;
21152;SDS011;10734;44.792;20.482;2023-06-10T09:11:37;6.43;;;3.13;;
21152;SDS011;10734;44.792;20.482;2023-06-10T09:14:04;4.85;;;3.42;;
21152;SDS011;10734;44.792;20.482;2023-06-10T09:16:32;9.20;;;3.55;;
21152;SDS011;10734;44.792;20.482;2023-06-10T09:19:00;6.38;;;2.95;;
21152;SDS011;10734;44.792;20.482;2023-06-10T09:21:35;3.83;;;2.58;;
21152;SDS011;10734;44.792;20.482;2023-06-10T09:24:05;4.30;;;2.70;;
21152;SDS011;10734;44.792;20.482;2023-06-10T09:26:32;5.47;;;3.08;;
21152;SDS011;10734;44.792;20.482;2023-06-10T09:29:03;4.18;;;3.10;;
21152;SDS011;10734;44.792;20.482;2023-06-10T09:31:40;7.38;;;3.47;;
21152;SDS011;10734;44.792;20.482;2023-06-10T09:34:11;4.50;;;3.40;;
21152;SDS011;10734;44.792;20.482;2023-06-10T09:36:39;4.25;;;3.50;;
21152;SDS011;10734;44.792;20.482;2023-06-10T09:39:14;4.70;;;3.13;;
21152;SDS011;10734;44.792;20.482;2023-06-10T09:41:45;4.45;;;2.80;;
21152;SDS011;10734;44.792;20.482;2023-06-10T09:44:13;4.95;;;3.17;;
21152;SDS011;10734;44.792;20.482;2023-06-10T09:46:45;4.97;;;3.08;;
21152;SDS011;10734;44.792;20.482;2023-06-10T09:49:15;10.90;;;3.40;;
21152;SDS011;10734;44.792;20.482;2023-06-10T09:51:54;13.70;;;3.47;;
21152;SDS011;10734;44.792;20.482;2023-06-10T09:54:22;9.82;;;3.08;;
21152;SDS011;10734;44.792;20.482;2023-06-10T09:56:49;5.20;;;3.75;;
21152;SDS011;10734;44.792;20.482;2023-06-10T09:59:30;7.30;;;3.70;;
21152;SDS011;10734;44.792;20.482;2023-06-10T10:02:01;3.33;;;3.03;;
21152;SDS011;10734;44.792;20.482;2023-06-10T10:04:28;4.22;;;3.03;;
21152;SDS011;10734;44.792;20.482;2023-06-10T10:06:55;3.30;;;3.00;;
21152;SDS011;10734;44.792;20.482;2023-06-10T10:09:23;5.28;;;3.22;;
21152;SDS011;10734;44.792;20.482;2023-06-10T10:11:49;6.65;;;3.58;;
21152;SDS011;10734;44.792;20.482;2023-06-10T10:14:19;3.05;;;2.75;;
21152;SDS011;10734;44.792;20.482;2023-06-10T10:16:46;8.73;;;3.47;;
21152;SDS011;10734;44.792;20.482;2023-06-10T10:19:18;8.05;;;3.17;;
21152;SDS011;10734;44.792;20.482;2023-06-10T10:21:52;4.03;;;2.92;;
21152;SDS011;10734;44.792;20.482;2023-06-10T10:24:21;6.55;;;4.30;;
21152;SDS011;10734;44.792;20.482;2023-06-10T10:26:51;9.57;;;3.83;;
21152;SDS011;10734;44.792;20.482;2023-06-10T10:29:24;6.82;;;3.53;;
21152;SDS011;10734;44.792;20.482;2023-06-10T10:31:54;3.85;;;3.45;;
21152;SDS011;10734;44.792;20.482;2023-06-10T10:34:33;5.95;;;3.33;;
21152;SDS011;10734;44.792;20.482;2023-06-10T10:37:08;6.57;;;3.75;;
21152;SDS011;10734;44.792;20.482;2023-06-10T10:39:36;6.07;;;2.85;;
21152;SDS011;10734;44.792;20.482;2023-06-10T10:42:03;5.88;;;3.90;;
21152;SDS011;10734;44.792;20.482;2023-06-10T10:44:32;8.63;;;4.32;;
21152;SDS011;10734;44.792;20.482;2023-06-10T10:47:02;4.80;;;3.60;;
21152;SDS011;10734;44.792;20.482;2023-06-10T10:49:30;5.38;;;3.88;;
21152;SDS011;10734;44.792;20.482;2023-06-10T10:52:01;5.47;;;3.73;;
21152;SDS011;10734;44.792;20.482;2023-06-10T10:54:32;5.15;;;4.00;;
21152;SDS011;10734;44.792;20.482;2023-06-10T10:57:10;5.03;;;3.60;;
21152;SDS011;10734;44.792;20.482;2023-06-10T11:02:16;7.35;;;3.40;;
21152;SDS011;10734;44.792;20.482;2023-06-10T11:04:45;6.03;;;3.42;;
21152;SDS011;10734;44.792;20.482;2023-06-10T11:07:14;4.90;;;3.78;;
21152;SDS011;10734;44.792;20.482;2023-06-10T11:23:33;4.68;;;2.38;;
21152;SDS011;10734;44.792;20.482;2023-06-10T11:26:11;4.47;;;2.45;;
21152;SDS011;10734;44.792;20.482;2023-06-10T11:31:38;4.03;;;2.20;;
21152;SDS011;10734;44.792;20.482;2023-06-10T11:34:08;2.97;;;2.55;;
21152;SDS011;10734;44.792;20.482;2023-06-10T11:36:39;3.65;;;2.40;;
21152;SDS011;10734;44.792;20.482;2023-06-10T11:39:09;3.40;;;2.22;;
21152;SDS011;10734;44.792;20.482;2023-06-10T11:41:37;6.50;;;2.05;;
21152;SDS011;10734;44.792;20.482;2023-06-10T11:44:11;2.20;;;2.00;;
21152;SDS011;10734;44.792;20.482;2023-06-10T11:46:44;2.00;;;1.70;;
21152;SDS011;10734;44.792;20.482;2023-06-10T11:49:11;5.20;;;2.08;;
21152;SDS011;10734;44.792;20.482;2023-06-10T11:51:39;3.38;;;2.10;;
21152;SDS011;10734;44.792;20.482;2023-06-10T11:54:08;2.75;;;2.42;;
21152;SDS011;10734;44.792;20.482;2023-06-10T11:56:35;2.65;;;2.20;;
21152;SDS011;10734;44.792;20.482;2023-06-10T11:59:05;2.58;;;2.38;;
21152;SDS011;10734;44.792;20.482;2023-06-10T12:01:34;3.00;;;2.20;;
21152;SDS011;10734;44.792;20.482;2023-06-10T12:04:07;2.85;;;2.38;;
21152;SDS011;10734;44.792;20.482;2023-06-10T12:06:45;4.50;;;2.35;;
21152;SDS011;10734;44.792;20.482;2023-06-10T12:11:58;4.40;;;1.70;;
21152;SDS011;10734;44.792;20.482;2023-06-10T12:14:51;6.70;;;1.98;;
21152;SDS011;10734;44.792;20.482;2023-06-10T12:20:00;4.55;;;2.20;;
21152;SDS011;10734;44.792;20.482;2023-06-10T12:22:43;3.33;;;2.67;;
21152;SDS011;10734;44.792;20.482;2023-06-10T12:25:11;2.20;;;2.05;;
21152;SDS011;10734;44.792;20.482;2023-06-10T12:27:39;2.20;;;1.58;;
21152;SDS011;10734;44.792;20.482;2023-06-10T12:30:20;4.53;;;2.22;;
21152;SDS011;10734;44.792;20.482;2023-06-10T12:32:48;2.58;;;2.15;;
21152;SDS011;10734;44.792;20.482;2023-06-10T12:35:16;4.50;;;2.20;;
21152;SDS011;10734;44.792;20.482;2023-06-10T12:38:00;4.32;;;1.95;;
21152;SDS011;10734;44.792;20.482;2023-06-10T12:40:31;3.33;;;2.15;;
21152;SDS011;10734;44.792;20.482;2023-06-10T12:42:58;2.05;;;1.85;;
21152;SDS011;10734;44.792;20.482;2023-06-10T12:45:30;4.13;;;2.03;;
21152;SDS011;10734;44.792;20.482;2023-06-10T12:48:04;2.55;;;2.00;;
21152;SDS011;10734;44.792;20.482;2023-06-10T12:50:35;2.47;;;1.95;;
21152;SDS011;10734;44.792;20.482;2023-06-10T12:53:03;3.28;;;2.33;;
21152;SDS011;10734;44.792;20.482;2023-06-10T12:55:32;2.83;;;1.90;;
21152;SDS011;10734;44.792;20.482;2023-06-10T12:58:00;3.15;;;2.38;;
21152;SDS011;10734;44.792;20.482;2023-06-10T13:00:29;2.63;;;2.22;;
21152;SDS011;10734;44.792;20.482;2023-06-10T13:03:01;3.33;;;2.47;;
21152;SDS011;10734;44.792;20.482;2023-06-10T13:05:29;4.07;;;1.90;;
21152;SDS011;10734;44.792;20.482;2023-06-10T13:07:56;2.28;;;2.03;;
21152;SDS011;10734;44.792;20.482;2023-06-10T13:10:26;3.53;;;2.17;;
21152;SDS011;10734;44.792;20.482;2023-06-10T13:12:54;3.67;;;2.00;;
21152;SDS011;10734;44.792;20.482;2023-06-10T13:15:24;4.57;;;2.03;;
21152;SDS011;10734;44.792;20.482;2023-06-10T13:17:52;4.43;;;1.98;;
21152;SDS011;10734;44.792;20.482;2023-06-10T13:20:20;2.63;;;2.20;;
21152;SDS011;10734;44.792;20.482;2023-06-10T13:22:48;6.25;;;2.20;;
21152;SDS011;10734;44.792;20.482;2023-06-10T13:25:16;2.97;;;1.80;;
21152;SDS011;10734;44.792;20.482;2023-06-10T13:27:43;3.83;;;2.00;;
21152;SDS011;10734;44.792;20.482;2023-06-10T13:30:10;1.77;;;1.67;;
21152;SDS011;10734;44.792;20.482;2023-06-10T13:32:38;2.95;;;2.08;;
21152;SDS011;10734;44.792;20.482;2023-06-10T13:35:05;2.63;;;2.20;;
21152;SDS011;10734;44.792;20.482;2023-06-10T13:37:35;4.45;;;2.20;;
21152;SDS011;10734;44.792;20.482;2023-06-10T13:40:02;4.93;;;1.90;;
21152;SDS011;10734;44.792;20.482;2023-06-10T13:42:31;2.78;;;1.80;;
21152;SDS011;10734;44.792;20.482;2023-06-10T13:44:57;2.53;;;2.15;;
21152;SDS011;10734;44.792;20.482;2023-06-10T13:47:26;2.38;;;2.00;;
21152;SDS011;10734;44.792;20.482;2023-06-10T13:49:53;2.95;;;1.95;;
21152;SDS011;10734;44.792;20.482;2023-06-10T13:52:20;3.47;;;2.47;;
21152;SDS011;10734;44.792;20.482;2023-06-10T13:54:47;3.83;;;2.13;;
21152;SDS011;10734;44.792;20.482;2023-06-10T13:57:14;5.32;;;2.58;;
21152;SDS011;10734;44.792;20.482;2023-06-10T13:59:41;4.40;;;2.15;;
21152;SDS011;10734;44.792;20.482;2023-06-10T14:02:09;3.35;;;2.20;;
21152;SDS011;10734;44.792;20.482;2023-06-10T14:04:36;6.15;;;2.00;;
21152;SDS011;10734;44.792;20.482;2023-06-10T14:07:04;3.33;;;2.50;;
21152;SDS011;10734;44.792;20.482;2023-06-10T14:09:31;2.13;;;1.92;;
21152;SDS011;10734;44.792;20.482;2023-06-10T14:11:58;5.20;;;2.08;;
21152;SDS011;10734;44.792;20.482;2023-06-10T14:14:25;4.03;;;2.10;;
21152;SDS011;10734;44.792;20.482;2023-06-10T14:16:53;2.33;;;1.42;;
21152;SDS011;10734;44.792;20.482;2023-06-10T14:19:20;1.50;;;1.40;;
21152;SDS011;10734;44.792;20.482;2023-06-10T14:21:48;2.58;;;1.30;;
21152;SDS011;10734;44.792;20.482;2023-06-10T14:24:16;1.60;;;1.50;;
21152;SDS011;10734;44.792;20.482;2023-06-10T14:26:43;3.78;;;1.90;;
21152;SDS011;10734;44.792;20.482;2023-06-10T14:29:10;3.47;;;1.60;;
21152;SDS011;10734;44.792;20.482;2023-06-10T14:31:40;2.60;;;1.98;;
21152;SDS011;10734;44.792;20.482;2023-06-10T14:34:08;2.47;;;1.80;;
21152;SDS011;10734;44.792;20.482;2023-06-10T14:36:35;3.17;;;1.80;;
21152;SDS011;10734;44.792;20.482;2023-06-10T14:39:05;4.00;;;2.38;;
21152;SDS011;10734;44.792;20.482;2023-06-10T14:41:32;4.35;;;2.22;;
21152;SDS011;10734;44.792;20.482;2023-06-10T14:43:59;6.80;;;2.10;;
21152;SDS011;10734;44.792;20.482;2023-06-10T14:46:26;2.72;;;2.00;;
21152;SDS011;10734;44.792;20.482;2023-06-10T14:48:54;2.63;;;2.22;;
21152;SDS011;10734;44.792;20.482;2023-06-10T14:51:21;2.60;;;2.40;;
21152;SDS011;10734;44.792;20.482;2023-06-10T14:53:49;2.30;;;2.10;;
21152;SDS011;10734;44.792;20.482;2023-06-10T14:56:16;3.50;;;2.33;;
21152;SDS011;10734;44.792;20.482;2023-06-10T14:58:44;2.85;;;2.30;;
21152;SDS011;10734;44.792;20.482;2023-06-10T15:01:11;2.95;;;2.35;;